Time;durP1;ratioP1;P1;durP2;ratioP2;P2;SDS_P1;SDS_P2;PMS_P1;PMS_P2;Temp;Humidity;BMP_temperature;BMP_pressure;BME280_temperature;BME280_humidity;BME280_pressure;Samples;Min_cycle;Max_cycle;Signal;HPM_P1;HPM_P2
2023/07/05 00:00:15;;;;;;;25.33;12.55;;;;;;;15.00;100.00;100331.69;5020522;28;20053;-78
2023/07/05 00:02:40;;;;;;;21.65;12.18;;;;;;;15.09;100.00;100319.53;5019151;28;20086;-79
2023/07/05 00:05:07;;;;;;;31.48;13.75;;;;;;;15.02;100.00;100314.16;5020094;28;20044;-79
2023/07/05 00:07:33;;;;;;;26.35;12.82;;;;;;;15.01;100.00;100303.53;5017718;28;20084;-78
2023/07/05 00:09:58;;;;;;;25.30;13.13;;;;;;;14.99;100.00;100287.53;4994784;28;20022;-78
2023/07/05 00:12:25;;;;;;;18.25;12.18;;;;;;;14.92;100.00;100281.34;5014409;28;20077;-78
2023/07/05 00:14:50;;;;;;;25.98;12.65;;;;;;;14.84;100.00;100266.19;5014547;28;20092;-78
2023/07/05 00:17:15;;;;;;;22.83;11.82;;;;;;;14.84;100.00;100241.00;5018308;28;20053;-79
2023/07/05 00:19:41;;;;;;;19.67;11.57;;;;;;;14.82;100.00;100235.78;5020581;28;20034;-78
2023/07/05 00:22:07;;;;;;;24.52;11.73;;;;;;;14.85;100.00;100223.66;5020364;28;20026;-80
2023/07/05 00:24:32;;;;;;;26.58;12.57;;;;;;;14.87;100.00;100219.69;5017825;28;20022;-79
2023/07/05 00:26:58;;;;;;;23.42;12.85;;;;;;;14.83;100.00;100217.66;5018426;28;20030;-77
2023/07/05 00:29:23;;;;;;;27.08;11.98;;;;;;;14.79;100.00;100205.63;5018477;28;20065;-78
2023/07/05 00:31:48;;;;;;;21.02;11.25;;;;;;;14.74;100.00;100210.88;5018360;28;20038;-77
2023/07/05 00:34:14;;;;;;;27.08;11.25;;;;;;;14.78;100.00;100187.72;5019522;28;20025;-78
2023/07/05 00:36:39;;;;;;;21.63;11.30;;;;;;;14.76;100.00;100181.69;5019422;28;20030;-78
2023/07/05 00:39:04;;;;;;;20.40;11.27;;;;;;;14.78;100.00;100177.72;5017100;28;20030;-77
2023/07/05 00:41:30;;;;;;;23.92;10.98;;;;;;;14.83;100.00;100169.72;5016843;28;20179;-78
2023/07/05 00:43:55;;;;;;;21.23;10.32;;;;;;;14.82;100.00;100173.47;5019292;28;20054;-78
2023/07/05 00:46:29;;;;;;;22.77;11.05;;;;;;;14.86;100.00;100163.03;5018967;28;20048;-77
2023/07/05 00:48:59;;;;;;;24.27;11.30;;;;;;;14.87;100.00;100151.13;5002911;28;20102;-79
2023/07/05 00:51:51;;;;;;;18.20;10.80;;;;;;;14.90;100.00;100147.97;5039034;28;20033;-76
2023/07/05 00:54:19;;;;;;;22.58;10.75;;;;;;;14.91;100.00;100144.22;5040067;28;20109;-78
2023/07/05 00:56:49;;;;;;;18.63;9.30;;;;;;;14.95;100.00;100164.38;5035648;28;20077;-76
2023/07/05 00:59:14;;;;;;;18.65;8.30;;;;;;;15.03;100.00;100158.63;5013558;28;20116;-77
2023/07/05 01:01:40;;;;;;;21.48;8.70;;;;;;;15.09;100.00;100155.03;5014734;28;20457;-77
2023/07/05 01:04:06;;;;;;;22.00;7.43;;;;;;;15.13;100.00;100155.38;5015798;28;20082;-77
2023/07/05 01:06:32;;;;;;;10.75;6.38;;;;;;;15.08;100.00;100180.47;4999519;28;20254;-77
2023/07/05 01:08:57;;;;;;;8.93;4.45;;;;;;;14.92;100.00;100143.16;5018876;28;20034;-81
2023/07/05 01:11:33;;;;;;;8.25;4.32;;;;;;;14.96;100.00;100122.69;5017355;28;20040;-79
2023/07/05 01:14:10;;;;;;;5.35;3.08;;;;;;;14.87;100.00;100121.31;5002470;28;20026;-79
2023/07/05 01:17:08;;;;;;;7.75;2.90;;;;;;;14.85;100.00;100121.56;5003684;28;20049;-79
2023/07/05 01:19:49;;;;;;;9.90;2.67;;;;;;;14.80;100.00;100107.06;5006546;28;20331;-81
2023/07/05 01:22:42;;;;;;;16.15;2.72;;;;;;;14.79;100.00;100094.56;5008381;28;20034;-80
2023/07/05 01:25:08;;;;;;;8.82;2.65;;;;;;;14.83;100.00;100085.75;5007105;28;20053;-80
2023/07/05 01:28:10;;;;;;;12.13;2.55;;;;;;;14.76;100.00;100073.34;5022870;28;20022;-80
2023/07/05 01:30:53;;;;;;;16.40;2.97;;;;;;;14.69;100.00;100068.84;5027523;28;20040;-80
2023/07/05 01:33:27;;;;;;;23.67;3.08;;;;;;;14.73;100.00;100057.56;4990455;28;20111;-80
2023/07/05 01:35:54;;;;;;;9.32;2.50;;;;;;;14.67;100.00;100070.94;5006957;28;20034;-80
2023/07/05 01:38:20;;;;;;;17.13;3.20;;;;;;;14.67;100.00;100080.97;5005882;28;20065;-78
2023/07/05 01:40:51;;;;;;;7.65;2.47;;;;;;;14.72;100.00;100067.56;5024545;28;20289;-81
2023/07/05 01:43:17;;;;;;;13.00;2.53;;;;;;;14.76;100.00;100079.59;5023737;28;20026;-80
2023/07/05 01:45:59;;;;;;;9.48;2.63;;;;;;;14.75;100.00;100087.97;5025400;28;20131;-78
2023/07/05 01:48:38;;;;;;;12.05;2.85;;;;;;;14.78;100.00;100084.78;5008636;28;20030;-79
2023/07/05 01:51:13;;;;;;;15.30;2.13;;;;;;;14.79;100.00;100056.63;5006316;28;20048;-79
2023/07/05 01:54:00;;;;;;;8.95;2.30;;;;;;;14.77;100.00;100066.84;5006699;28;20025;-81
2023/07/05 01:56:32;;;;;;;11.23;2.30;;;;;;;14.79;100.00;100051.22;5024468;28;20100;-79
2023/07/05 01:58:58;;;;;;;11.30;2.58;;;;;;;14.77;100.00;100059.59;5006607;28;20026;-79
2023/07/05 02:01:25;;;;;;;12.77;2.80;;;;;;;14.74;100.00;100059.19;4990523;28;20034;-78
2023/07/05 02:03:52;;;;;;;7.57;2.17;;;;;;;14.72;100.00;100059.44;5005043;28;20026;-81
2023/07/05 02:06:18;;;;;;;13.65;2.95;;;;;;;14.74;100.00;100041.06;5024593;28;20029;-80
2023/07/05 02:08:45;;;;;;;27.92;3.00;;;;;;;14.69;100.00;100041.75;5009603;28;20030;-78
2023/07/05 02:11:11;;;;;;;9.55;2.47;;;;;;;14.71;100.00;100045.03;5008909;28;20038;-79
2023/07/05 02:13:36;;;;;;;11.45;2.65;;;;;;;14.66;100.00;100053.03;5028541;28;20037;-79
2023/07/05 02:16:02;;;;;;;7.68;2.58;;;;;;;14.62;100.00;100062.69;5009087;28;20168;-80
2023/07/05 02:18:29;;;;;;;6.63;2.65;;;;;;;14.49;100.00;100069.06;5026903;28;20045;-80
2023/07/05 02:20:55;;;;;;;11.77;3.20;;;;;;;14.26;100.00;100079.72;5024204;28;20077;-81
2023/07/05 02:23:22;;;;;;;12.18;4.43;;;;;;;14.15;100.00;100089.41;5022116;28;20061;-81
2023/07/05 02:25:49;;;;;;;7.90;2.78;;;;;;;14.03;100.00;100091.19;5022196;28;20033;-79
2023/07/05 02:28:14;;;;;;;7.25;3.30;;;;;;;13.97;100.00;100102.91;5021448;28;20129;-78
2023/07/05 02:30:40;;;;;;;10.15;4.65;;;;;;;13.76;100.00;100115.78;5018731;28;20058;-78
2023/07/05 02:33:06;;;;;;;10.32;4.90;;;;;;;13.72;100.00;100100.25;5019888;28;20056;-77
2023/07/05 02:35:36;;;;;;;9.52;4.45;;;;;;;13.64;100.00;100098.63;5021428;28;20025;-78
2023/07/05 02:38:02;;;;;;;11.52;5.40;;;;;;;13.51;100.00;100112.25;5023924;28;20032;-78
2023/07/05 02:40:27;;;;;;;8.63;5.32;;;;;;;13.48;100.00;100112.66;5022821;28;20045;-80
2023/07/05 02:42:52;;;;;;;14.52;5.00;;;;;;;13.42;100.00;100113.56;5024384;28;20487;-80
2023/07/05 02:45:18;;;;;;;12.05;5.10;;;;;;;13.40;100.00;100102.94;5024632;28;20030;-79
2023/07/05 02:47:43;;;;;;;7.72;4.60;;;;;;;13.38;100.00;100105.88;5022803;28;20025;-78
2023/07/05 02:50:09;;;;;;;6.65;4.57;;;;;;;13.42;100.00;100116.25;5022863;28;20038;-78
2023/07/05 02:52:34;;;;;;;6.35;3.88;;;;;;;13.38;100.00;100097.78;5025015;28;20040;-78
2023/07/05 02:55:00;;;;;;;10.02;4.55;;;;;;;13.38;100.00;100095.06;5027222;28;20038;-79
2023/07/05 02:57:25;;;;;;;10.13;3.95;;;;;;;13.33;100.00;100103.00;5030489;28;20049;-80
2023/07/05 02:59:50;;;;;;;11.30;3.67;;;;;;;13.33;100.00;100100.31;5031400;28;20121;-79
2023/07/05 03:02:16;;;;;;;9.85;3.70;;;;;;;13.38;100.00;100100.47;5028394;28;20091;-82
2023/07/05 03:04:42;;;;;;;8.20;3.78;;;;;;;13.30;100.00;100079.13;5026319;28;20033;-80
2023/07/05 03:07:08;;;;;;;11.38;3.50;;;;;;;13.28;100.00;100083.09;5024721;28;20041;-78
2023/07/05 03:09:33;;;;;;;4.68;3.00;;;;;;;13.20;100.00;100100.34;5025915;28;20030;-82
2023/07/05 03:11:58;;;;;;;8.75;4.20;;;;;;;13.14;100.00;100091.25;5022913;28;21422;-81
2023/07/05 03:14:24;;;;;;;9.27;3.80;;;;;;;13.16;100.00;100091.00;5004771;28;20041;-81
2023/07/05 03:16:49;;;;;;;7.15;2.85;;;;;;;13.11;100.00;100089.00;5022322;28;20396;-81
2023/07/05 03:19:15;;;;;;;11.50;3.28;;;;;;;13.12;100.00;100092.50;5021471;28;20034;-80
2023/07/05 03:21:42;;;;;;;13.25;3.30;;;;;;;13.13;100.00;100086.88;5021989;28;20060;-81
2023/07/05 03:24:07;;;;;;;14.55;3.20;;;;;;;13.15;100.00;100092.91;5020443;28;20061;-82
2023/07/05 03:26:33;;;;;;;10.95;3.40;;;;;;;13.15;100.00;100089.38;5021951;28;20041;-82
2023/07/05 03:28:58;;;;;;;14.75;4.05;;;;;;;13.18;100.00;100080.81;5010083;28;20056;-78
2023/07/05 03:31:24;;;;;;;10.57;3.97;;;;;;;13.21;100.00;100066.88;5027321;28;20026;-79
2023/07/05 03:33:51;;;;;;;14.45;4.53;;;;;;;13.20;100.00;100081.44;5023757;28;20522;-81
2023/07/05 03:36:18;;;;;;;13.30;4.70;;;;;;;13.17;100.00;100061.09;5021973;28;20029;-82
2023/07/05 03:38:44;;;;;;;12.98;4.80;;;;;;;13.11;100.00;100061.97;5020360;28;20030;-81
2023/07/05 03:41:23;;;;;;;16.25;4.75;;;;;;;13.12;100.00;100046.59;5018937;28;20073;-77
2023/07/05 03:43:52;;;;;;;12.35;4.60;;;;;;;13.10;100.00;100049.50;5020230;28;20125;-79
2023/07/05 03:46:17;;;;;;;14.10;4.53;;;;;;;13.05;100.00;100084.44;5002448;28;20417;-81
2023/07/05 03:48:45;;;;;;;13.48;5.05;;;;;;;13.05;100.00;100105.22;5015092;28;20037;-76
2023/07/05 03:51:13;;;;;;;9.32;3.00;;;;;;;12.94;100.00;100121.06;4996918;28;20026;-78
2023/07/05 03:53:38;;;;;;;12.43;2.00;;;;;;;12.70;100.00;100111.00;4997791;28;20109;-78
2023/07/05 03:56:06;;;;;;;12.02;2.47;;;;;;;12.66;100.00;100107.88;5020276;28;20089;-82
2023/07/05 03:58:32;;;;;;;15.80;2.42;;;;;;;12.66;100.00;100113.28;5021309;28;20033;-79
2023/07/05 04:01:24;;;;;;;15.32;2.05;;;;;;;12.66;100.00;100110.56;5005518;28;20639;-81
2023/07/05 04:03:53;;;;;;;17.13;2.22;;;;;;;12.72;100.00;100125.13;5018012;28;20050;-80
2023/07/05 04:06:19;;;;;;;12.35;2.45;;;;;;;12.73;100.00;100124.06;5020742;28;20456;-79
2023/07/05 04:08:44;;;;;;;11.02;2.17;;;;;;;12.71;100.00;100109.94;5020121;28;20109;-79
2023/07/05 04:11:10;;;;;;;14.77;2.22;;;;;;;12.64;100.00;100099.19;5020853;28;20091;-81
2023/07/05 04:13:36;;;;;;;17.15;2.08;;;;;;;12.64;100.00;100092.97;5022740;28;20034;-81
2023/07/05 04:16:08;;;;;;;18.10;2.25;;;;;;;12.66;100.00;100096.25;5025811;28;20014;-80
2023/07/05 04:18:34;;;;;;;16.27;2.33;;;;;;;12.60;100.00;100097.94;5029551;28;20053;-78
2023/07/05 04:20:59;;;;;;;22.83;2.60;;;;;;;12.62;100.00;100095.03;5029950;28;20785;-79
2023/07/05 04:23:25;;;;;;;11.30;2.20;;;;;;;12.64;100.00;100099.19;5025118;28;20075;-82
2023/07/05 04:26:04;;;;;;;20.50;2.50;;;;;;;12.65;100.00;100105.41;5022160;28;20030;-80
2023/07/05 04:28:31;;;;;;;18.75;3.20;;;;;;;12.66;100.00;100110.56;5019338;28;20033;-79
2023/07/05 04:30:56;;;;;;;21.65;3.35;;;;;;;12.66;100.00;100112.47;5010063;28;20041;-78
2023/07/05 04:33:22;;;;;;;16.75;2.30;;;;;;;12.71;100.00;100113.47;4999690;28;20026;-80
2023/07/05 04:35:49;;;;;;;13.00;2.67;;;;;;;12.71;100.00;100104.53;5015756;28;20147;-80
2023/07/05 04:38:14;;;;;;;25.05;3.50;;;;;;;12.77;100.00;100113.66;5021519;28;20678;-79
2023/07/05 04:40:40;;;;;;;22.30;3.88;;;;;;;12.66;100.00;100115.97;5019456;28;20030;-79
2023/07/05 04:43:05;;;;;;;18.23;3.65;;;;;;;12.63;100.00;100107.50;5016778;28;20057;-78
2023/07/05 04:45:31;;;;;;;23.08;3.63;;;;;;;12.64;100.00;100114.56;5015746;28;20699;-79
2023/07/05 04:47:56;;;;;;;14.70;3.53;;;;;;;12.65;100.00;100100.00;5016046;28;20037;-78
2023/07/05 04:50:22;;;;;;;19.83;3.08;;;;;;;12.66;100.00;100080.06;5013403;28;20042;-77
2023/07/05 04:52:47;;;;;;;14.05;2.75;;;;;;;12.67;100.00;100087.13;5015180;28;20034;-78
2023/07/05 04:55:12;;;;;;;10.93;2.53;;;;;;;12.62;100.00;100084.25;5017641;28;20051;-77
2023/07/05 04:57:38;;;;;;;13.85;2.67;;;;;;;12.60;100.00;100064.72;5020071;28;20056;-78
2023/07/05 05:00:03;;;;;;;18.27;2.90;;;;;;;12.57;100.00;100070.56;5000913;28;20104;-82
2023/07/05 05:02:29;;;;;;;21.13;3.17;;;;;;;12.54;100.00;100061.03;5011947;28;20036;-78
2023/07/05 05:04:54;;;;;;;14.75;2.55;;;;;;;12.52;100.00;100063.09;5019499;28;20057;-77
2023/07/05 05:07:20;;;;;;;22.13;3.22;;;;;;;12.46;100.00;100075.56;5020999;28;20033;-78
2023/07/05 05:09:45;;;;;;;20.45;3.33;;;;;;;12.36;100.00;100064.41;5019761;28;20068;-77
2023/07/05 05:12:10;;;;;;;19.25;2.90;;;;;;;12.21;100.00;100071.91;5021077;28;20472;-80
2023/07/05 05:14:36;;;;;;;28.23;3.67;;;;;;;12.17;100.00;100086.88;5024840;28;20049;-80
2023/07/05 05:17:01;;;;;;;29.30;4.22;;;;;;;12.08;100.00;100094.34;5024989;28;20096;-79
2023/07/05 05:19:27;;;;;;;28.83;3.67;;;;;;;11.93;100.00;100086.50;5017770;28;20030;-79
2023/07/05 05:21:52;;;;;;;21.50;3.00;;;;;;;11.87;100.00;100092.72;5017661;28;20029;-80
2023/07/05 05:24:17;;;;;;;30.40;3.45;;;;;;;11.76;100.00;100106.78;5024244;28;20044;-80
2023/07/05 05:26:43;;;;;;;33.03;3.90;;;;;;;11.67;100.00;100161.97;5022215;28;20040;-79
2023/07/05 05:29:08;;;;;;;24.35;3.55;;;;;;;11.63;100.00;100151.56;5013444;28;20093;-79
2023/07/05 05:31:33;;;;;;;25.77;4.72;;;;;;;11.53;100.00;100126.91;5017451;28;20033;-76
2023/07/05 05:33:59;;;;;;;35.15;4.40;;;;;;;11.51;100.00;100134.38;5013006;28;20053;-78
2023/07/05 05:36:24;;;;;;;35.97;4.32;;;;;;;11.39;100.00;100133.28;5021297;28;20045;-78
2023/07/05 05:38:49;;;;;;;24.88;2.90;;;;;;;11.13;100.00;100155.59;5017325;28;20040;-78
2023/07/05 05:41:15;;;;;;;25.65;3.63;;;;;;;11.02;100.00;100143.56;5016125;28;20089;-77
2023/07/05 05:43:41;;;;;;;22.23;2.15;;;;;;;10.84;100.00;100137.91;5016228;28;20448;-76
2023/07/05 05:46:07;;;;;;;21.13;3.17;;;;;;;10.73;100.00;100145.50;5017457;28;20034;-76
2023/07/05 05:48:33;;;;;;;18.65;3.10;;;;;;;10.52;100.00;100132.16;5017952;28;20458;-77
2023/07/05 05:50:58;;;;;;;23.10;2.00;;;;;;;10.39;100.00;100132.91;5017176;28;20064;-76
2023/07/05 05:53:24;;;;;;;15.70;2.20;;;;;;;10.41;100.00;100109.34;5016656;28;20057;-79
2023/07/05 05:55:49;;;;;;;17.50;2.88;;;;;;;10.40;100.00;100114.91;5014711;28;20058;-77
2023/07/05 05:58:15;;;;;;;20.50;2.45;;;;;;;10.48;100.00;100117.47;5017203;28;20126;-77
2023/07/05 06:00:40;;;;;;;34.65;3.70;;;;;;;10.58;100.00;100119.78;5016542;28;20022;-77
2023/07/05 06:03:05;;;;;;;35.20;5.30;;;;;;;10.67;100.00;100116.72;4999242;28;20034;-77
2023/07/05 06:05:33;;;;;;;33.17;4.90;;;;;;;10.91;100.00;100128.00;5016502;28;20142;-76
2023/07/05 06:07:58;;;;;;;42.03;5.55;;;;;;;11.00;100.00;100145.63;5015211;28;20030;-77
2023/07/05 06:10:23;;;;;;;42.85;6.07;;;;;;;11.11;100.00;100149.59;5014725;28;20406;-76
2023/07/05 06:12:49;;;;;;;47.50;6.95;;;;;;;11.21;100.00;100160.81;5014410;28;20036;-75
2023/07/05 06:15:14;;;;;;;40.95;7.03;;;;;;;11.27;100.00;100156.47;5015803;28;20593;-80
2023/07/05 06:17:40;;;;;;;49.47;7.22;;;;;;;11.30;100.00;100145.31;5000703;28;20141;-78
2023/07/05 06:20:06;;;;;;;51.30;6.28;;;;;;;11.28;100.00;100164.38;5012603;28;20350;-77
2023/07/05 06:22:33;;;;;;;55.63;7.47;;;;;;;11.37;100.00;100156.91;4996730;28;20022;-76
2023/07/05 06:24:58;;;;;;;37.15;6.13;;;;;;;11.40;100.00;100172.66;5010548;28;20046;-77
2023/07/05 06:27:23;;;;;;;37.97;5.82;;;;;;;11.44;100.00;100190.09;5022407;28;20026;-77
2023/07/05 06:29:49;;;;;;;40.10;7.38;;;;;;;11.46;100.00;100214.16;5022978;28;20029;-78
2023/07/05 06:32:14;;;;;;;53.63;7.80;;;;;;;11.43;100.00;100185.75;5022436;28;20034;-77
2023/07/05 06:34:39;;;;;;;47.08;7.18;;;;;;;11.45;100.00;100189.06;5021774;28;20037;-76
2023/07/05 06:37:05;;;;;;;47.78;6.30;;;;;;;11.43;100.00;100215.41;5022479;28;20037;-77
2023/07/05 06:39:30;;;;;;;39.28;5.63;;;;;;;11.42;100.00;100217.22;5020771;28;20400;-77
2023/07/05 06:41:56;;;;;;;42.22;5.22;;;;;;;11.33;100.00;100223.03;5000040;28;20106;-77
2023/07/05 06:44:21;;;;;;;38.00;6.10;;;;;;;11.31;100.00;100227.78;5016676;28;20385;-76
2023/07/05 06:46:46;;;;;;;37.47;6.30;;;;;;;11.32;100.00;100226.75;5020655;28;20085;-79
2023/07/05 06:49:12;;;;;;;47.05;5.45;;;;;;;11.32;100.00;100229.44;5025005;28;20033;-78
2023/07/05 06:51:37;;;;;;;50.35;6.05;;;;;;;11.31;100.00;100228.59;5021682;28;20026;-78
2023/07/05 06:54:03;;;;;;;39.05;6.15;;;;;;;11.33;100.00;100233.81;5017642;28;20021;-78
2023/07/05 06:56:28;;;;;;;47.85;5.53;;;;;;;11.37;100.00;100252.06;5017019;28;20034;-78
2023/07/05 06:58:53;;;;;;;31.00;5.60;;;;;;;11.42;100.00;100260.34;5002144;28;20033;-78
2023/07/05 07:01:19;;;;;;;34.63;5.82;;;;;;;11.46;100.00;100279.66;5017466;28;20462;-78
2023/07/05 07:03:44;;;;;;;36.63;5.93;;;;;;;11.47;100.00;100262.44;5017714;28;20036;-79
2023/07/05 07:06:10;;;;;;;24.40;4.75;;;;;;;11.44;100.00;100276.31;5020113;28;20096;-77
2023/07/05 07:08:37;;;;;;;26.52;5.75;;;;;;;11.49;100.00;100294.59;5021559;28;20026;-81
2023/07/05 07:11:03;;;;;;;26.98;4.45;;;;;;;11.51;100.00;100314.09;5029403;28;20033;-78
2023/07/05 07:13:30;;;;;;;35.03;5.10;;;;;;;11.54;100.00;100313.69;5022188;28;20025;-78
2023/07/05 07:16:13;;;;;;;35.80;5.15;;;;;;;11.61;100.00;100331.53;5019935;28;20033;-77
2023/07/05 07:18:38;;;;;;;22.00;4.65;;;;;;;11.68;100.00;100325.34;5018336;28;20106;-78
2023/07/05 07:21:11;;;;;;;21.67;4.95;;;;;;;11.69;100.00;100337.78;5005021;28;20033;-78
2023/07/05 07:23:37;;;;;;;27.13;4.53;;;;;;;11.79;100.00;100340.94;5021573;28;20037;-78
2023/07/05 07:26:09;;;;;;;18.90;4.45;;;;;;;11.85;100.00;100343.66;5004321;28;20034;-77
2023/07/05 07:28:35;;;;;;;26.75;4.82;;;;;;;11.91;100.00;100352.00;5022012;28;20028;-78
2023/07/05 07:31:12;;;;;;;22.60;3.88;;;;;;;11.92;100.00;100356.34;5022514;28;20081;-78
2023/07/05 07:33:37;;;;;;;31.08;5.25;;;;;;;11.94;100.00;100368.59;5021054;28;20072;-77
2023/07/05 07:36:13;;;;;;;24.15;5.40;;;;;;;11.99;100.00;100386.88;5012970;28;20073;-78
2023/07/05 07:38:39;;;;;;;25.52;4.53;;;;;;;12.00;100.00;100391.22;5017054;28;20022;-80
2023/07/05 07:41:19;;;;;;;17.52;4.80;;;;;;;11.93;100.00;100404.69;5016414;28;20026;-81
2023/07/05 07:43:44;;;;;;;24.92;5.38;;;;;;;11.92;100.00;100392.22;5001144;28;20080;-79
2023/07/05 07:46:12;;;;;;;20.65;5.53;;;;;;;11.97;100.00;100405.13;5019190;28;20030;-80
2023/07/05 07:48:39;;;;;;;26.55;5.32;;;;;;;11.97;100.00;100405.94;5020194;28;20082;-80
2023/07/05 07:51:04;;;;;;;24.60;4.45;;;;;;;11.94;100.00;100422.53;5027834;28;20109;-78
2023/07/05 07:53:30;;;;;;;30.10;5.05;;;;;;;11.92;100.00;100427.28;5019358;28;20056;-78
2023/07/05 07:55:55;;;;;;;33.65;5.43;;;;;;;11.89;100.00;100429.56;5018958;28;20083;-78
2023/07/05 07:58:20;;;;;;;49.10;6.65;;;;;;;11.82;100.00;100441.13;5000513;28;20022;-79
2023/07/05 08:00:46;;;;;;;33.72;5.43;;;;;;;11.79;100.00;100455.00;5019337;28;20391;-79
2023/07/05 08:03:11;;;;;;;37.95;5.75;;;;;;;11.64;100.00;100471.31;5000433;28;20377;-79
2023/07/05 08:05:36;;;;;;;70.00;10.00;;;;;;;11.62;100.00;100459.88;5025023;28;20029;-78
2023/07/05 08:08:02;;;;;;;62.70;8.77;;;;;;;11.74;100.00;100465.56;5011388;28;20026;-81
2023/07/05 08:10:28;;;;;;;48.33;7.35;;;;;;;11.87;100.00;100497.16;5018543;28;20049;-79
2023/07/05 08:12:53;;;;;;;31.40;6.32;;;;;;;11.80;100.00;100507.06;5001452;28;20465;-81
2023/07/05 08:15:18;;;;;;;41.33;5.75;;;;;;;11.54;100.00;100495.06;5020020;28;20025;-79
2023/07/05 08:17:44;;;;;;;34.00;4.68;;;;;;;11.32;100.00;100504.22;5018772;28;20057;-80
2023/07/05 08:20:10;;;;;;;22.00;4.75;;;;;;;11.24;100.00;100497.13;5001359;28;20361;-77
2023/07/05 08:22:35;;;;;;;32.40;5.93;;;;;;;11.20;100.00;100529.00;5018371;28;20034;-79
2023/07/05 08:25:00;;;;;;;28.98;4.95;;;;;;;11.24;100.00;100517.84;5020934;28;20078;-79
2023/07/05 08:27:26;;;;;;;44.78;6.68;;;;;;;11.34;100.00;100518.34;5022249;28;20077;-80
2023/07/05 08:30:07;;;;;;;37.65;7.22;;;;;;;11.64;100.00;100540.56;5019604;28;20030;-82
2023/07/05 08:32:32;;;;;;;48.28;7.57;;;;;;;11.98;100.00;100531.69;5017707;28;20034;-79
2023/07/05 08:34:58;;;;;;;35.97;7.55;;;;;;;12.32;100.00;100545.34;5025384;28;20065;-76
2023/07/05 08:37:23;;;;;;;32.83;7.43;;;;;;;12.58;100.00;100547.31;5022540;28;20389;-78
2023/07/05 08:39:49;;;;;;;36.40;7.05;;;;;;;12.80;100.00;100570.44;5022247;28;20026;-79
2023/07/05 08:42:37;;;;;;;34.58;7.32;;;;;;;12.98;100.00;100563.63;5023611;28;20026;-78
2023/07/05 08:45:11;;;;;;;33.42;6.50;;;;;;;13.06;100.00;100606.66;5003720;28;20065;-79
2023/07/05 08:47:47;;;;;;;26.73;5.85;;;;;;;13.14;100.00;100606.50;5024946;28;20060;-79
2023/07/05 08:50:36;;;;;;;25.92;5.63;;;;;;;13.23;100.00;100605.25;5002256;28;20022;-77
2023/07/05 08:53:03;;;;;;;37.47;6.35;;;;;;;13.41;100.00;100618.19;5011987;28;20049;-80
2023/07/05 08:55:44;;;;;;;24.27;5.63;;;;;;;13.38;100.00;100616.75;5018590;28;20033;-79
2023/07/05 08:58:14;;;;;;;24.45;5.40;;;;;;;13.29;100.00;100623.38;5020167;28;20080;-78
2023/07/05 09:01:03;;;;;;;26.60;5.25;;;;;;;13.33;100.00;100626.50;5001716;28;20018;-82
2023/07/05 09:03:30;;;;;;;21.13;4.28;;;;;;;13.32;100.00;100627.53;5014566;28;20046;-82
2023/07/05 09:06:13;;;;;;;33.35;6.85;;;;;;;13.38;100.00;100624.03;5020777;28;20061;-83
2023/07/05 09:09:09;;;;;;;16.88;4.35;;;;;;;13.49;100.00;100638.81;5020988;28;20033;-82
2023/07/05 09:12:00;;;;;;;32.13;4.57;;;;;;;13.56;100.00;100650.44;5017118;28;20034;-81
2023/07/05 09:14:56;;;;;;;23.63;4.72;;;;;;;13.59;100.00;100637.34;5023720;28;20481;-82
2023/07/05 09:17:42;;;;;;;27.88;4.80;;;;;;;13.67;100.00;100660.66;5025306;28;20051;-83
2023/07/05 09:20:39;;;;;;;23.83;4.80;;;;;;;13.73;100.00;100667.13;5024997;28;20405;-83
2023/07/05 09:23:21;;;;;;;28.75;4.38;;;;;;;13.77;100.00;100673.75;5004821;28;20027;-82
2023/07/05 09:25:49;;;;;;;23.83;4.65;;;;;;;13.76;100.00;100662.13;5011522;28;20034;-82
2023/07/05 09:28:21;;;;;;;20.42;4.90;;;;;;;13.79;100.00;100669.81;5004567;28;20076;-82
2023/07/05 09:30:47;;;;;;;23.15;4.82;;;;;;;13.93;100.00;100678.78;5006057;28;20554;-80
2023/07/05 09:33:34;;;;;;;21.40;4.00;;;;;;;14.07;100.00;100690.44;5006000;28;20030;-81
2023/07/05 09:36:10;;;;;;;22.73;3.92;;;;;;;14.28;100.00;100694.78;5006016;28;20022;-83
2023/07/05 09:38:41;;;;;;;24.63;5.05;;;;;;;14.46;100.00;100686.03;4999633;28;20034;-80
2023/07/05 09:41:12;;;;;;;24.00;4.60;;;;;;;14.50;100.00;100692.66;5024775;28;20061;-82
2023/07/05 09:43:38;;;;;;;22.58;4.00;;;;;;;14.47;100.00;100695.78;5025921;28;20033;-81
2023/07/05 09:46:10;;;;;;;24.50;4.53;;;;;;;14.50;100.00;100689.94;5025655;28;20093;-80
2023/07/05 09:48:43;;;;;;;30.35;4.50;;;;;;;14.55;100.00;100706.44;5025477;28;20041;-83
2023/07/05 09:51:09;;;;;;;19.15;4.47;;;;;;;14.51;100.00;100694.34;5025783;28;20037;-80
2023/07/05 09:53:53;;;;;;;18.23;3.53;;;;;;;14.61;100.00;100689.34;5007230;28;20030;-81
2023/07/05 09:56:27;;;;;;;23.52;3.70;;;;;;;14.98;100.00;100707.75;4990356;28;20061;-84
2023/07/05 09:59:05;;;;;;;23.13;4.07;;;;;;;14.99;100.00;100702.16;5011505;28;20033;-80
2023/07/05 10:01:31;;;;;;;20.00;4.18;;;;;;;14.86;100.00;100715.75;5030367;28;20528;-82
2023/07/05 10:04:02;;;;;;;14.65;3.60;;;;;;;14.76;100.00;100723.47;5031220;28;20039;-80
2023/07/05 10:06:29;;;;;;;21.00;4.07;;;;;;;14.77;100.00;100730.56;5018294;28;20028;-79
2023/07/05 10:08:56;;;;;;;33.78;4.93;;;;;;;15.10;100.00;100755.69;5034377;28;20021;-78
2023/07/05 10:11:35;;;;;;;17.10;4.20;;;;;;;15.30;100.00;100742.06;5030287;28;20068;-80
2023/07/05 10:14:05;;;;;;;24.17;4.40;;;;;;;15.72;100.00;100750.63;5024698;28;20288;-82
2023/07/05 10:16:42;;;;;;;20.42;4.28;;;;;;;16.00;100.00;100736.63;5020910;28;20029;-80
2023/07/05 10:19:41;;;;;;;21.00;3.65;;;;;;;16.09;100.00;100756.22;5026120;28;20041;-81
2023/07/05 10:22:13;;;;;;;21.75;4.28;;;;;;;16.17;100.00;100742.38;5017280;28;20042;-79
2023/07/05 10:24:49;;;;;;;20.10;3.47;;;;;;;16.37;100.00;100749.50;5028724;28;20074;-80
2023/07/05 10:27:19;;;;;;;21.85;3.80;;;;;;;16.49;100.00;100755.06;5032348;28;20034;-79
2023/07/05 10:29:47;;;;;;;17.23;3.85;;;;;;;16.72;100.00;100759.84;5022061;28;20061;-79
2023/07/05 10:32:18;;;;;;;13.90;2.95;;;;;;;16.55;100.00;100754.97;5033886;28;20022;-79
2023/07/05 10:34:44;;;;;;;15.55;2.90;;;;;;;16.63;100.00;100762.00;5024717;28;20033;-79
2023/07/05 10:37:28;;;;;;;16.55;3.47;;;;;;;16.61;100.00;100767.69;5014749;28;20026;-80
2023/07/05 10:39:54;;;;;;;20.65;3.20;;;;;;;16.74;100.00;100785.72;5027379;28;20037;-78
2023/07/05 10:42:20;;;;;;;22.70;3.15;;;;;;;16.77;100.00;100793.50;5025043;28;20026;-79
2023/07/05 10:44:45;;;;;;;14.30;2.67;;;;;;;17.01;100.00;100782.75;5006451;28;20035;-79
2023/07/05 10:47:12;;;;;;;20.98;3.00;;;;;;;16.90;100.00;100789.78;5024669;28;20029;-83
2023/07/05 10:49:37;;;;;;;21.50;3.00;;;;;;;16.77;100.00;100795.31;5024741;28;20026;-81
2023/07/05 10:52:06;;;;;;;15.35;2.85;;;;;;;16.83;100.00;100798.03;5024278;28;20080;-80
2023/07/05 10:54:41;;;;;;;19.70;2.95;;;;;;;17.02;100.00;100789.88;4985515;28;20038;-79
2023/07/05 10:57:15;;;;;;;20.77;2.85;;;;;;;17.13;100.00;100797.28;4994740;28;20045;-81
2023/07/05 10:59:45;;;;;;;16.65;2.75;;;;;;;16.97;100.00;100797.88;5021737;28;20038;-81
2023/07/05 11:02:20;;;;;;;21.98;3.35;;;;;;;17.00;100.00;100814.56;5017594;28;20085;-80
2023/07/05 11:04:47;;;;;;;23.77;3.17;;;;;;;17.20;100.00;100814.38;5026572;28;20089;-79
2023/07/05 11:07:13;;;;;;;;;;;;;;;17.09;100.00;100815.94;5023347;28;20022;-79
2023/07/05 11:09:38;;;;;;;12.07;2.90;;;;;;;17.07;100.00;100830.81;5041861;28;19920;-81
2023/07/05 11:12:15;;;;;;;16.50;2.60;;;;;;;17.03;100.00;100826.88;5027435;28;20388;-81
2023/07/05 11:14:41;;;;;;;14.98;2.30;;;;;;;17.06;100.00;100837.31;5005362;28;20033;-81
2023/07/05 11:17:20;;;;;;;14.88;2.55;;;;;;;17.04;100.00;100828.56;5008922;28;20022;-80